Time;durP1;ratioP1;P1;durP2;ratioP2;P2;SDS_P1;SDS_P2;PMS_P1;PMS_P2;Temp;Humidity;BMP_temperature;BMP_pressure;BME280_temperature;BME280_humidity;BME280_pressure;Samples;Min_cycle;Max_cycle;Signal;HPM_P1;HPM_P2
2022/04/25 00:01:01;;;;;;;2.47;1.30;;;9.50;99.90;;;;;;4430168;32;20069;-67
2022/04/25 00:03:27;;;;;;;0.30;0.30;;;9.40;99.90;;;;;;4433753;32;20076;-68
2022/04/25 00:05:52;;;;;;;1.05;0.98;;;9.30;99.90;;;;;;4431926;32;20410;-67
2022/04/25 00:08:18;;;;;;;16.00;0.90;;;9.10;99.90;;;;;;4428953;32;20144;-67
2022/04/25 00:10:44;;;;;;;0.55;0.55;;;9.00;99.90;;;;;;4428138;32;20085;-68
2022/04/25 00:13:10;;;;;;;0.50;0.50;;;8.90;99.90;;;;;;4429897;32;20069;-68
2022/04/25 00:15:36;;;;;;;1.20;1.10;;;9.00;99.90;;;;;;4428711;32;20080;-68
2022/04/25 00:18:01;;;;;;;0.50;0.50;;;9.10;99.90;;;;;;4433345;32;20418;-68
2022/04/25 00:20:27;;;;;;;6.20;0.75;;;9.10;99.90;;;;;;4427275;32;20090;-69
2022/04/25 00:22:53;;;;;;;4.65;1.10;;;9.00;99.90;;;;;;4433999;32;20115;-69
2022/04/25 00:25:18;;;;;;;0.52;0.52;;;9.00;99.90;;;;;;4430287;32;20089;-72
2022/04/25 00:27:44;;;;;;;1.10;0.73;;;8.90;99.90;;;;;;4428881;32;20124;-69
2022/04/25 00:30:10;;;;;;;0.60;0.60;;;8.80;99.90;;;;;;4431446;32;20097;-68
2022/04/25 00:32:35;;;;;;;3.60;1.05;;;8.80;99.90;;;;;;4429565;32;20073;-68
2022/04/25 00:35:03;;;;;;;0.62;0.62;;;8.70;99.90;;;;;;4430333;32;20123;-67
2022/04/25 00:37:28;;;;;;;6.22;1.27;;;8.80;99.90;;;;;;4413948;32;20078;-67
2022/04/25 00:39:54;;;;;;;4.65;0.70;;;8.70;99.90;;;;;;4422535;32;20364;-67
2022/04/25 00:42:20;;;;;;;5.57;1.85;;;8.80;99.90;;;;;;4416707;32;20168;-67
2022/04/25 00:44:45;;;;;;;0.73;0.73;;;8.80;99.90;;;;;;4417407;32;20199;-69
2022/04/25 00:47:11;;;;;;;0.50;0.50;;;8.80;99.90;;;;;;4413475;32;20081;-68
2022/04/25 00:49:37;;;;;;;1.48;0.52;;;8.80;99.90;;;;;;4415051;32;20482;-67
2022/04/25 00:52:03;;;;;;;2.58;1.30;;;8.80;99.90;;;;;;4411999;32;20093;-67
2022/04/25 00:54:32;;;;;;;1.75;1.15;;;8.80;99.90;;;;;;4417639;32;20107;-67
2022/04/25 00:56:57;;;;;;;3.20;1.20;;;8.70;99.90;;;;;;4413736;32;20073;-68
2022/04/25 00:59:24;;;;;;;1.95;1.00;;;8.90;99.90;;;;;;4417472;32;20120;-68
2022/04/25 01:01:51;;;;;;;0.75;0.73;;;8.90;99.90;;;;;;4414443;32;20516;-68
2022/04/25 01:04:17;;;;;;;3.50;1.42;;;8.80;99.90;;;;;;4413131;32;20085;-69
2022/04/25 01:06:43;;;;;;;0.70;0.70;;;8.80;99.90;;;;;;4415793;32;20588;-68
2022/04/25 01:09:08;;;;;;;1.40;0.80;;;8.70;99.90;;;;;;4414863;32;20144;-68
2022/04/25 01:11:34;;;;;;;0.40;0.40;;;8.50;99.90;;;;;;4420981;32;20411;-68
2022/04/25 01:14:17;;;;;;;0.60;0.60;;;8.50;99.90;;;;;;4410575;32;20109;-68
2022/04/25 01:16:43;;;;;;;0.40;0.40;;;8.60;99.90;;;;;;4412613;32;20090;-68
2022/04/25 01:19:09;;;;;;;4.40;1.87;;;8.60;99.90;;;;;;4417048;32;21611;-68
2022/04/25 01:21:44;;;;;;;1.00;0.70;;;8.70;99.90;;;;;;4413946;32;20116;-69
2022/04/25 01:27:28;;;;;;;1.30;1.20;;;8.60;99.90;;;;;;4414174;32;20080;-67
2022/04/25 01:29:48;;;;;;;1.73;1.17;;;8.60;99.90;;;;;;4413843;32;20125;-68
2022/04/25 01:32:14;;;;;;;3.22;1.55;;;8.40;99.90;;;;;;4413940;32;20073;-69
2022/04/25 01:34:40;;;;;;;0.62;0.40;;;8.50;99.90;;;;;;4412846;32;20065;-68
2022/04/25 01:37:08;;;;;;;0.28;0.28;;;8.50;99.90;;;;;;4428779;32;20073;-68
2022/04/25 01:39:35;;;;;;;14.75;1.65;;;8.50;99.90;;;;;;4430532;32;20073;-68
2022/04/25 01:42:02;;;;;;;0.65;0.65;;;8.60;99.90;;;;;;4428264;32;20064;-68
2022/04/25 01:44:27;;;;;;;3.20;1.70;;;8.60;99.90;;;;;;4429399;32;20520;-68
2022/04/25 01:46:52;;;;;;;0.55;0.55;;;8.50;99.90;;;;;;4431443;32;20078;-68
2022/04/25 01:49:18;;;;;;;1.37;0.65;;;8.50;99.90;;;;;;4428209;32;20144;-68
2022/04/25 01:51:45;;;;;;;0.80;0.80;;;8.50;99.90;;;;;;4432284;32;20560;-68
2022/04/25 01:54:10;;;;;;;0.80;0.80;;;8.50;99.90;;;;;;4427571;32;20116;-69
2022/04/25 01:56:36;;;;;;;0.60;0.60;;;8.30;99.90;;;;;;4429794;32;20133;-68
2022/04/25 01:59:01;;;;;;;1.00;0.68;;;8.40;99.90;;;;;;4428590;32;20058;-67
2022/04/25 02:01:27;;;;;;;1.70;0.80;;;8.40;99.90;;;;;;4427746;32;20097;-68
2022/04/25 02:03:52;;;;;;;0.73;0.73;;;8.40;99.90;;;;;;4429271;32;20077;-68
2022/04/25 02:06:18;;;;;;;0.50;0.50;;;8.40;99.90;;;;;;4428476;32;20084;-68
2022/04/25 02:08:43;;;;;;;0.73;0.73;;;8.40;99.90;;;;;;4428052;32;20465;-68
2022/04/25 02:11:25;;;;;;;4.20;1.02;;;8.40;99.90;;;;;;4428182;32;20078;-68
2022/04/25 02:13:52;;;;;;;1.85;0.80;;;8.40;99.90;;;;;;4428256;32;20085;-67
2022/04/25 02:16:19;;;;;;;14.25;0.98;;;8.30;99.90;;;;;;4426509;32;20098;-68
2022/04/25 02:18:44;;;;;;;0.68;0.68;;;8.30;99.90;;;;;;4427495;32;20128;-69
2022/04/25 02:21:10;;;;;;;4.03;1.02;;;8.30;99.90;;;;;;4429699;32;20092;-67
2022/04/25 02:23:36;;;;;;;0.85;0.85;;;8.30;99.90;;;;;;4429390;32;20065;-67
2022/04/25 02:26:01;;;;;;;1.52;0.88;;;8.30;99.90;;;;;;4430214;32;20065;-67
2022/04/25 02:28:27;;;;;;;0.68;0.68;;;8.30;99.90;;;;;;4429722;32;20584;-67
2022/04/25 02:30:53;;;;;;;0.70;0.70;;;8.10;99.90;;;;;;4431734;32;20062;-67
2022/04/25 02:33:19;;;;;;;1.37;1.25;;;8.10;99.90;;;;;;4430092;32;20497;-67
2022/04/25 02:35:45;;;;;;;0.73;0.73;;;8.10;99.90;;;;;;4427558;32;20098;-68
2022/04/25 02:38:10;;;;;;;5.43;1.95;;;8.20;99.90;;;;;;4430638;32;20585;-69
2022/04/25 02:40:37;;;;;;;7.68;1.35;;;8.20;99.90;;;;;;4430874;32;20571;-67
2022/04/25 02:43:02;;;;;;;0.75;0.73;;;8.20;99.90;;;;;;4430003;32;20221;-68
2022/04/25 02:45:28;;;;;;;0.75;0.75;;;8.20;99.90;;;;;;4430963;32;20120;-68
2022/04/25 02:47:53;;;;;;;0.55;0.55;;;8.10;99.90;;;;;;4432404;32;20385;-69
2022/04/25 02:50:20;;;;;;;2.17;0.80;;;8.10;99.90;;;;;;4431936;32;20064;-68
2022/04/25 02:52:46;;;;;;;0.68;0.68;;;8.10;99.90;;;;;;4433371;32;20603;-68
2022/04/25 02:55:11;;;;;;;0.70;0.70;;;8.00;99.90;;;;;;4429234;32;20066;-69
2022/04/25 02:57:37;;;;;;;0.65;0.60;;;8.10;99.90;;;;;;4429776;32;20090;-68
2022/04/25 03:00:04;;;;;;;0.60;0.60;;;8.10;99.90;;;;;;4429441;32;20085;-68
2022/04/25 03:02:29;;;;;;;0.40;0.40;;;7.90;99.90;;;;;;4433367;32;20072;-68
2022/04/25 03:04:55;;;;;;;0.60;0.60;;;8.00;99.90;;;;;;4433920;32;20530;-68
2022/04/25 03:07:20;;;;;;;0.50;0.50;;;8.00;99.90;;;;;;4428305;32;20082;-68
2022/04/25 03:09:45;;;;;;;0.60;0.55;;;8.00;99.90;;;;;;4429337;32;20070;-68
2022/04/25 03:12:11;;;;;;;3.50;1.92;;;7.90;99.90;;;;;;4431558;32;20093;-68
2022/04/25 03:14:36;;;;;;;1.85;1.62;;;7.90;99.90;;;;;;4429834;32;20060;-68
2022/04/25 03:17:02;;;;;;;4.80;1.27;;;7.80;99.90;;;;;;4430148;32;20069;-68
2022/04/25 03:19:28;;;;;;;0.70;0.70;;;7.90;99.90;;;;;;4432112;32;20128;-67
2022/04/25 03:21:53;;;;;;;0.60;0.60;;;7.90;99.90;;;;;;4429048;32;20072;-67
2022/04/25 03:24:19;;;;;;;0.50;0.50;;;7.90;99.90;;;;;;4430087;32;20136;-66
2022/04/25 03:26:44;;;;;;;0.37;0.37;;;7.80;99.90;;;;;;4428379;32;20124;-67
2022/04/25 03:29:11;;;;;;;2.15;1.58;;;7.70;99.90;;;;;;4430733;32;20081;-68
2022/04/25 03:31:36;;;;;;;1.50;1.40;;;7.70;99.90;;;;;;4434499;32;20090;-68
2022/04/25 03:34:03;;;;;;;2.42;1.35;;;7.60;99.90;;;;;;4427370;32;20078;-68
2022/04/25 03:36:28;;;;;;;2.58;1.02;;;7.60;99.90;;;;;;4430976;32;20085;-68
2022/04/25 03:38:54;;;;;;;2.03;1.00;;;7.60;99.90;;;;;;4433755;32;20601;-68
2022/04/25 03:41:20;;;;;;;1.67;0.88;;;7.60;99.90;;;;;;4430607;32;20073;-68
2022/04/25 03:43:46;;;;;;;0.73;0.73;;;7.70;99.90;;;;;;4429074;32;20156;-68
2022/04/25 03:46:13;;;;;;;2.70;1.05;;;7.70;99.90;;;;;;4433792;32;20573;-68
2022/04/25 03:48:41;;;;;;;1.00;0.98;;;7.70;99.90;;;;;;4431438;32;20444;-68
2022/04/25 03:51:07;;;;;;;2.62;1.17;;;7.70;99.90;;;;;;4433698;32;20160;-68
2022/04/25 03:53:32;;;;;;;1.02;0.90;;;7.70;99.90;;;;;;4431444;32;20069;-68
2022/04/25 03:57:14;;;;;;;2.15;1.25;;;7.60;99.90;;;;;;4427342;32;20069;-68
2022/04/25 03:58:43;;;;;;;0.50;0.50;;;7.60;99.90;;;;;;4420513;32;20126;-68
2022/04/25 04:01:09;;;;;;;3.42;1.02;;;7.70;99.90;;;;;;4428916;32;20074;-68
2022/04/25 04:03:35;;;;;;;1.58;0.80;;;7.70;99.90;;;;;;4431336;32;20065;-67
2022/04/25 04:06:01;;;;;;;1.87;0.70;;;7.60;99.90;;;;;;4429120;32;20093;-68
2022/04/25 04:08:26;;;;;;;0.98;0.82;;;7.60;99.90;;;;;;4428792;32;20108;-68
2022/04/25 04:10:52;;;;;;;1.08;1.05;;;7.70;99.90;;;;;;4429749;32;20081;-68
2022/04/25 04:13:17;;;;;;;3.08;0.73;;;7.70;99.90;;;;;;4431759;32;20074;-68
2022/04/25 04:15:43;;;;;;;0.70;0.70;;;7.60;99.90;;;;;;4431565;32;20410;-68
2022/04/25 04:18:09;;;;;;;0.55;0.55;;;7.60;99.90;;;;;;4432115;32;20066;-68
2022/04/25 04:20:35;;;;;;;1.75;0.62;;;7.50;99.90;;;;;;4429977;32;20093;-68
2022/04/25 04:23:01;;;;;;;0.57;0.57;;;7.60;99.90;;;;;;4399619;32;21051;-68
2022/04/25 04:25:26;;;;;;;0.65;0.65;;;7.50;99.90;;;;;;4403478;32;20077;-68
2022/04/25 04:27:52;;;;;;;2.83;1.10;;;7.50;99.90;;;;;;4406501;32;20935;-68
2022/04/25 04:30:18;;;;;;;4.97;1.42;;;7.50;99.90;;;;;;4413527;32;20088;-68
2022/04/25 04:32:44;;;;;;;0.68;0.68;;;7.50;99.90;;;;;;4412076;32;20097;-68
2022/04/25 04:35:12;;;;;;;0.45;0.45;;;7.50;99.90;;;;;;4422928;32;20379;-67
2022/04/25 04:37:39;;;;;;;0.80;0.80;;;7.50;99.90;;;;;;4427938;32;20560;-68
2022/04/25 04:40:38;;;;;;;1.52;0.90;;;7.40;99.90;;;;;;4427673;32;20124;-68
2022/04/25 04:42:52;;;;;;;0.50;0.50;;;7.50;99.90;;;;;;4417036;32;20065;-68
2022/04/25 04:45:18;;;;;;;4.30;1.20;;;7.50;99.90;;;;;;4430233;32;20579;-68
2022/04/25 04:47:43;;;;;;;7.87;0.75;;;7.50;99.90;;;;;;4427587;32;20074;-68
2022/04/25 04:50:14;;;;;;;0.60;0.60;;;7.50;99.90;;;;;;4429501;32;20101;-68
2022/04/25 04:53:00;;;;;;;;;;;7.50;99.90;;;;;;4413132;32;20199;-68
2022/04/25 04:55:26;;;;;;;1.75;0.60;;;7.60;99.90;;;;;;4429492;32;19957;-68
2022/04/25 04:57:52;;;;;;;1.77;1.00;;;7.60;99.90;;;;;;4428943;32;20127;-68
2022/04/25 05:00:17;;;;;;;0.95;0.70;;;7.50;99.90;;;;;;4426201;32;20090;-68
2022/04/25 05:02:44;;;;;;;0.73;0.73;;;7.60;99.90;;;;;;4404620;32;20465;-67
2022/04/25 05:05:12;;;;;;;1.52;1.08;;;7.60;99.90;;;;;;4397128;32;20206;-68
2022/04/25 05:07:38;;;;;;;7.20;1.27;;;7.60;99.90;;;;;;4394469;32;20627;-67
2022/04/25 05:10:06;;;;;;;0.20;0.20;;;7.60;99.90;;;;;;4405507;32;20466;-67
2022/04/25 05:12:43;;;;;;;0.30;0.30;;;7.50;99.90;;;;;;4393799;32;20802;-68
2022/04/25 05:15:09;;;;;;;0.77;0.77;;;7.50;99.90;;;;;;4396613;32;20220;-68
2022/04/25 05:17:34;;;;;;;0.62;0.50;;;7.50;99.90;;;;;;4369481;32;20299;-67
2022/04/25 05:20:00;;;;;;;2.17;0.88;;;7.60;99.90;;;;;;4310466;32;20373;-68
2022/04/25 05:22:25;;;;;;;1.42;1.15;;;7.60;99.90;;;;;;4343831;32;20416;-68
2022/04/25 05:24:53;;;;;;;9.20;1.37;;;7.60;99.90;;;;;;4331463;32;20493;-68
2022/04/25 05:27:18;;;;;;;2.30;0.90;;;7.60;99.90;;;;;;4389198;32;20094;-68
2022/04/25 05:29:44;;;;;;;1.73;0.65;;;7.70;99.90;;;;;;4382843;32;21121;-68
2022/04/25 05:32:10;;;;;;;1.52;0.85;;;7.70;99.90;;;;;;4343033;32;20961;-68
2022/04/25 05:34:36;;;;;;;0.93;0.93;;;7.70;99.90;;;;;;4364208;32;20543;-68
2022/04/25 05:37:03;;;;;;;17.77;0.93;;;7.80;99.90;;;;;;4372908;32;20094;-68
2022/04/25 05:39:30;;;;;;;0.45;0.45;;;7.80;99.90;;;;;;4389207;32;20069;-68
2022/04/25 05:41:55;;;;;;;0.60;0.60;;;7.80;99.90;;;;;;4406587;32;20401;-68
2022/04/25 05:44:21;;;;;;;1.20;0.60;;;7.80;99.90;;;;;;4402274;32;20550;-69
2022/04/25 05:46:46;;;;;;;1.35;0.75;;;7.80;99.90;;;;;;4411444;32;20066;-68
2022/04/25 05:51:58;;;;;;;2.15;1.05;;;7.90;99.90;;;;;;4394685;32;20093;-69
2022/04/25 05:54:24;;;;;;;1.25;0.93;;;8.00;99.90;;;;;;4397921;32;20689;-68
2022/04/25 05:56:50;;;;;;;25.00;1.10;;;8.10;99.90;;;;;;4390440;32;20073;-69
2022/04/25 05:59:15;;;;;;;1.10;1.00;;;8.00;99.90;;;;;;4387334;32;20096;-68
2022/04/25 06:01:41;;;;;;;0.90;0.88;;;8.10;99.90;;;;;;4374360;32;20192;-68
2022/04/25 06:04:06;;;;;;;1.75;0.70;;;8.20;99.90;;;;;;4382894;32;20078;-69
2022/04/25 06:06:32;;;;;;;0.60;0.60;;;8.30;99.90;;;;;;4390253;32;20120;-68
2022/04/25 06:08:57;;;;;;;3.97;1.45;;;8.40;99.90;;;;;;4382984;32;20518;-68
2022/04/25 06:11:23;;;;;;;0.40;0.40;;;8.30;99.90;;;;;;4385732;32;20401;-69
2022/04/25 06:13:50;;;;;;;3.90;0.93;;;8.30;99.90;;;;;;4380097;32;20680;-69
2022/04/25 06:16:16;;;;;;;1.15;0.82;;;8.40;99.90;;;;;;4380458;32;20073;-68
2022/04/25 06:18:42;;;;;;;1.05;0.65;;;8.40;99.90;;;;;;4369258;32;20186;-69
2022/04/25 06:21:08;;;;;;;1.87;0.95;;;8.60;99.90;;;;;;4365256;32;20620;-67
2022/04/25 06:23:33;;;;;;;0.82;0.82;;;8.80;99.90;;;;;;4385070;32;20617;-67
2022/04/25 06:25:59;;;;;;;0.90;0.77;;;8.80;99.90;;;;;;4384898;32;20088;-67
2022/04/25 06:28:25;;;;;;;0.50;0.50;;;8.70;99.90;;;;;;4382896;32;22346;-67
2022/04/25 06:30:51;;;;;;;0.50;0.50;;;8.60;99.90;;;;;;4368871;32;20658;-67
2022/04/25 06:33:17;;;;;;;2.17;0.73;;;8.70;99.90;;;;;;4359405;32;20121;-67
2022/04/25 06:35:44;;;;;;;1.20;0.93;;;8.80;99.90;;;;;;4376006;32;20093;-67
2022/04/25 06:38:10;;;;;;;0.50;0.50;;;8.80;99.90;;;;;;4385623;32;20905;-67
2022/04/25 06:40:37;;;;;;;0.95;0.62;;;8.80;99.90;;;;;;4390451;32;20191;-67
2022/04/25 06:43:03;;;;;;;1.30;0.90;;;8.80;99.90;;;;;;4388319;32;20089;-67
2022/04/25 06:45:30;;;;;;;0.62;0.50;;;8.90;99.90;;;;;;4384344;32;20582;-67
2022/04/25 06:47:55;;;;;;;1.65;0.85;;;9.10;99.90;;;;;;4375733;32;20137;-67
2022/04/25 06:50:21;;;;;;;0.50;0.50;;;9.10;99.90;;;;;;4381046;32;20231;-67
2022/04/25 06:52:46;;;;;;;0.65;0.65;;;9.30;99.90;;;;;;4375151;32;20077;-67
2022/04/25 06:55:12;;;;;;;1.65;1.42;;;9.20;99.90;;;;;;4378887;32;20195;-67
2022/04/25 06:57:38;;;;;;;1.87;0.88;;;9.30;99.90;;;;;;4370996;32;20121;-67
2022/04/25 07:00:08;;;;;;;0.65;0.65;;;9.30;99.90;;;;;;4375731;32;21014;-67
2022/04/25 07:02:35;;;;;;;2.00;0.57;;;9.40;99.90;;;;;;4375361;32;20467;-69
2022/04/25 07:05:01;;;;;;;0.50;0.50;;;9.40;99.90;;;;;;4372777;32;20525;-68
2022/04/25 07:07:26;;;;;;;0.47;0.47;;;9.30;99.90;;;;;;4391194;32;20290;-67
2022/04/25 07:09:52;;;;;;;1.20;0.60;;;9.30;99.90;;;;;;4392189;32;20100;-67
2022/04/25 07:12:17;;;;;;;0.43;0.43;;;9.50;99.90;;;;;;4389013;32;20160;-67
2022/04/25 07:14:43;;;;;;;0.60;0.60;;;9.60;99.90;;;;;;4389647;32;20097;-69
2022/04/25 07:17:09;;;;;;;0.40;0.40;;;9.70;99.90;;;;;;4387378;32;20117;-67
2022/04/25 07:19:39;;;;;;;1.17;0.80;;;9.70;99.90;;;;;;4376570;32;20641;-67
2022/04/25 07:28:57;;;;;;;9.02;1.80;;;9.80;99.90;;;;;;4378536;32;20163;-68
2022/04/25 07:30:23;;;;;;;0.45;0.45;;;9.90;99.90;;;;;;4370461;32;20085;-67
2022/04/25 07:32:48;;;;;;;0.73;0.62;;;9.80;99.90;;;;;;4361493;32;20490;-67
2022/04/25 07:35:14;;;;;;;0.75;0.75;;;9.80;99.90;;;;;;4373537;32;90355;-67
2022/04/25 07:37:39;;;;;;;2.30;0.73;;;9.80;99.90;;;;;;4388310;32;20323;-67
2022/04/25 07:40:08;;;;;;;0.65;0.65;;;9.80;99.90;;;;;;4393896;32;20090;-67
2022/04/25 07:42:36;;;;;;;0.50;0.50;;;9.80;99.90;;;;;;4398354;32;20116;-68
2022/04/25 07:45:02;;;;;;;0.55;0.55;;;9.90;99.90;;;;;;4392338;32;20535;-68
2022/04/25 07:47:28;;;;;;;1.08;0.85;;;10.10;99.90;;;;;;4391809;32;20110;-68
2022/04/25 07:49:53;;;;;;;2.05;0.93;;;10.10;99.90;;;;;;4379632;32;20081;-69
2022/04/25 07:52:19;;;;;;;0.50;0.50;;;10.10;99.90;;;;;;4375587;32;20117;-69
2022/04/25 07:54:44;;;;;;;0.55;0.55;;;10.20;99.90;;;;;;4368555;32;20994;-69
2022/04/25 07:57:10;;;;;;;0.43;0.43;;;10.20;99.90;;;;;;4366069;32;20257;-69
2022/04/25 07:59:35;;;;;;;0.57;0.57;;;10.30;99.90;;;;;;4372043;32;20588;-69
2022/04/25 08:02:03;;;;;;;0.52;0.52;;;10.40;99.90;;;;;;4375299;32;20081;-68
2022/04/25 08:04:29;;;;;;;0.77;0.77;;;10.40;99.90;;;;;;4369199;32;20250;-69
2022/04/25 08:06:55;;;;;;;0.37;0.37;;;10.40;99.90;;;;;;4388059;32;20085;-69
2022/04/25 08:09:20;;;;;;;3.90;1.85;;;10.40;99.90;;;;;;4386228;32;20105;-69
2022/04/25 08:11:45;;;;;;;0.40;0.40;;;10.50;99.90;;;;;;4395255;32;20081;-69
2022/04/25 08:18:01;;;;;;;0.50;0.50;;;10.60;99.90;;;;;;4386274;32;20058;-69
2022/04/25 08:19:42;;;;;;;1.08;1.00;;;10.80;99.90;;;;;;4382307;32;20578;-69
2022/04/25 08:22:09;;;;;;;0.80;0.80;;;10.50;99.90;;;;;;4384093;32;20191;-68
2022/04/25 08:24:36;;;;;;;3.30;0.73;;;10.60;99.90;;;;;;4391273;32;20664;-69
2022/04/25 08:27:05;;;;;;;0.50;0.50;;;10.50;99.90;;;;;;4391871;32;20089;-70
2022/04/25 08:29:31;;;;;;;0.68;0.60;;;10.60;99.90;;;;;;4384459;32;20090;-68
2022/04/25 08:31:57;;;;;;;0.55;0.43;;;10.80;99.90;;;;;;4386722;32;20455;-68
2022/04/25 08:34:23;;;;;;;0.60;0.60;;;10.80;99.90;;;;;;4375309;32;21630;-69
2022/04/25 08:36:49;;;;;;;0.40;0.40;;;10.80;99.90;;;;;;4379227;32;20077;-70
2022/04/25 08:39:14;;;;;;;0.40;0.40;;;10.70;99.90;;;;;;4391168;32;20734;-69
2022/04/25 08:41:44;;;;;;;0.35;0.35;;;10.70;99.90;;;;;;4384611;32;20181;-68
2022/04/25 08:44:11;;;;;;;0.60;0.60;;;10.60;99.90;;;;;;4390110;32;20093;-68
2022/04/25 08:46:39;;;;;;;0.60;0.60;;;10.70;99.90;;;;;;4390281;32;20092;-68
2022/04/25 08:49:05;;;;;;;0.73;0.70;;;10.50;99.90;;;;;;4387816;32;20153;-68
2022/04/25 08:51:37;;;;;;;0.35;0.35;;;10.60;99.90;;;;;;4383258;32;20195;-68
2022/04/25 08:54:03;;;;;;;0.50;0.50;;;10.60;99.90;;;;;;4391714;32;20628;-67
2022/04/25 08:56:29;;;;;;;0.30;0.30;;;10.70;99.90;;;;;;4387509;32;20096;-68
2022/04/25 08:58:56;;;;;;;0.30;0.30;;;10.80;99.90;;;;;;4386324;32;20085;-69
2022/04/25 09:01:22;;;;;;;1.20;0.70;;;10.80;99.90;;;;;;4390808;32;20109;-68
2022/04/25 09:03:48;;;;;;;0.45;0.45;;;10.90;99.90;;;;;;4381715;32;20165;-67
2022/04/25 09:06:13;;;;;;;0.47;0.40;;;10.90;99.90;;;;;;4388332;32;20088;-67
2022/04/25 09:08:39;;;;;;;0.40;0.40;;;10.90;99.90;;;;;;4392332;32;20147;-68
2022/04/25 09:12:12;;;;;;;0.50;0.50;;;11.10;99.90;;;;;;4391369;32;20449;-67
2022/04/25 09:13:51;;;;;;;0.52;0.52;;;11.20;99.90;;;;;;4385271;32;20089;-67
2022/04/25 09:16:16;;;;;;;2.37;0.90;;;11.40;99.90;;;;;;4378222;32;20479;-69
2022/04/25 09:18:42;;;;;;;0.40;0.40;;;11.60;99.90;;;;;;4373285;32;20167;-68
2022/04/25 09:21:14;;;;;;;1.08;0.52;;;11.80;99.90;;;;;;4360651;32;20306;-67
2022/04/25 09:23:40;;;;;;;1.30;0.73;;;11.80;99.90;;;;;;4352139;32;20827;-68
2022/04/25 09:26:11;;;;;;;0.60;0.60;;;11.90;99.90;;;;;;4386298;32;20088;-69
2022/04/25 09:28:54;;;;;;;1.58;1.48;;;11.90;99.90;;;;;;4387235;32;20097;-68
2022/04/25 09:31:24;;;;;;;0.73;0.50;;;11.90;99.90;;;;;;4383875;32;20074;-69
2022/04/25 09:33:50;;;;;;;0.87;0.87;;;12.20;99.90;;;;;;4376420;32;20316;-70
2022/04/25 09:36:16;;;;;;;0.57;0.57;;;12.30;99.90;;;;;;4394822;32;20201;-70
2022/04/25 09:38:43;;;;;;;0.40;0.40;;;12.30;99.90;;;;;;4389780;32;20302;-70
2022/04/25 09:41:11;;;;;;;0.60;0.60;;;12.50;99.90;;;;;;4390526;32;20592;-70
2022/04/25 09:43:39;;;;;;;0.50;0.50;;;12.60;99.90;;;;;;4404770;32;20077;-70
2022/04/25 09:46:07;;;;;;;0.55;0.55;;;12.50;99.90;;;;;;4401016;32;21568;-69
2022/04/25 09:48:33;;;;;;;0.50;0.50;;;12.30;99.90;;;;;;4390419;32;20596;-68
2022/04/25 09:51:02;;;;;;;2.85;0.82;;;12.40;99.90;;;;;;4381344;32;20100;-70
2022/04/25 09:53:55;;;;;;;2.40;1.15;;;12.40;99.90;;;;;;4383940;32;20223;-70
2022/04/25 09:56:30;;;;;;;2.47;1.52;;;12.40;99.90;;;;;;4393114;32;20083;-69
2022/04/25 09:59:01;;;;;;;0.40;0.40;;;12.40;99.90;;;;;;4395355;32;21538;-69
2022/04/25 10:01:27;;;;;;;0.62;0.62;;;12.40;99.90;;;;;;4390680;32;20105;-69
2022/04/25 10:03:52;;;;;;;0.40;0.40;;;12.40;99.90;;;;;;4380765;32;20241;-69
2022/04/25 10:06:21;;;;;;;0.47;0.47;;;12.60;99.90;;;;;;4394757;32;20346;-69
2022/04/25 10:08:47;;;;;;;0.22;0.22;;;12.60;99.90;;;;;;4385294;32;20097;-69
2022/04/25 10:11:15;;;;;;;2.95;1.50;;;12.70;99.90;;;;;;4385798;32;21161;-69
2022/04/25 10:13:42;;;;;;;0.50;0.50;;;13.00;99.90;;;;;;4384739;32;20080;-69
2022/04/25 10:16:07;;;;;;;1.55;0.65;;;13.30;99.90;;;;;;4385516;32;20717;-70
2022/04/25 10:18:33;;;;;;;0.68;0.52;;;13.30;99.90;;;;;;4386702;32;20243;-69
2022/04/25 10:21:00;;;;;;;0.32;0.32;;;13.40;99.90;;;;;;4385186;32;20203;-69
2022/04/25 10:23:25;;;;;;;1.12;0.50;;;13.50;99.90;;;;;;4383869;32;20278;-70
2022/04/25 10:25:55;;;;;;;0.43;0.43;;;13.70;99.90;;;;;;4393944;32;20176;-70
2022/04/25 10:28:57;;;;;;;0.40;0.40;;;13.70;99.90;;;;;;4389294;32;20089;-70
2022/04/25 10:31:28;;;;;;;0.30;0.30;;;13.70;99.90;;;;;;4381691;32;20232;-69
2022/04/25 10:33:56;;;;;;;0.52;0.52;;;13.70;99.90;;;;;;4383651;32;20103;-67
2022/04/25 10:36:45;;;;;;;0.37;0.37;;;13.90;99.90;;;;;;4390745;32;21026;-69
2022/04/25 10:39:17;;;;;;;0.45;0.45;;;13.70;99.90;;;;;;4386908;32;20479;-68
2022/04/25 10:44:18;;;;;;;0.45;0.45;;;13.80;99.90;;;;;;4393094;32;20093;-69
2022/04/25 10:44:35;;;;;;;0.30;0.30;;;13.70;99.90;;;;;;4386650;32;21298;-69
2022/04/25 10:47:07;;;;;;;0.52;0.52;;;13.80;99.90;;;;;;4385621;32;20093;-69
2022/04/25 10:49:35;;;;;;;0.47;0.47;;;14.10;99.90;;;;;;4374884;32;20177;-69
2022/04/25 10:52:02;;;;;;;0.30;0.30;;;14.30;99.90;;;;;;4381202;32;20157;-69
2022/04/25 10:54:45;;;;;;;0.32;0.32;;;14.40;99.90;;;;;;4380012;32;20081;-69
2022/04/25 10:57:13;;;;;;;0.62;0.52;;;14.80;99.90;;;;;;4378088;32;20979;-68
2022/04/25 10:59:38;;;;;;;2.50;0.65;;;15.10;99.90;;;;;;4391242;32;20913;-70
2022/04/25 11:02:25;;;;;;;2.15;1.23;;;15.20;99.90;;;;;;4394270;32;20230;-69
2022/04/25 11:05:12;;;;;;;0.30;0.30;;;15.40;99.90;;;;;;4372916;32;21145;-69
2022/04/25 11:07:40;;;;;;;0.25;0.25;;;15.30;99.90;;;;;;4384990;32;20447;-68
2022/04/25 11:10:06;;;;;;;0.35;0.35;;;15.50;99.90;;;;;;4387686;32;20262;-68
2022/04/25 11:12:56;;;;;;;0.98;0.50;;;15.60;99.90;;;;;;4387429;32;20101;-69
2022/04/25 11:15:42;;;;;;;0.32;0.32;;;15.90;99.90;;;;;;4383128;32;20512;-68
2022/04/25 11:18:33;;;;;;;0.40;0.40;;;16.10;99.90;;;;;;4375168;32;20884;-67
2022/04/25 11:21:08;;;;;;;0.77;0.77;;;16.40;99.90;;;;;;4363421;32;20856;-68
2022/04/25 11:23:35;;;;;;;0.30;0.30;;;16.60;99.90;;;;;;4379066;32;21023;-70
2022/04/25 11:26:04;;;;;;;4.95;0.62;;;17.30;99.90;;;;;;4383703;32;20119;-69
2022/04/25 11:28:30;;;;;;;0.50;0.50;;;17.20;99.90;;;;;;4388763;32;20403;-69
2022/04/25 11:31:18;;;;;;;0.40;0.40;;;17.40;99.90;;;;;;4389363;32;20136;-70
2022/04/25 11:33:46;;;;;;;0.70;0.70;;;17.60;99.80;;;;;;4377448;32;20784;-70
2022/04/25 11:36:13;;;;;;;0.37;0.37;;;17.30;99.90;;;;;;4384716;32;20144;-69
2022/04/25 11:39:57;;;;;;;0.60;0.60;;;16.90;99.90;;;;;;4367800;32;20867;-69
2022/04/25 11:41:27;;;;;;;0.88;0.68;;;17.00;99.90;;;;;;4361904;32;20157;-70
2022/04/25 11:43:54;;;;;;;1.65;0.60;;;17.50;99.60;;;;;;4359711;32;20961;-69
2022/04/25 11:46:20;;;;;;;0.40;0.40;;;17.90;99.40;;;;;;4364969;32;20114;-69
2022/04/25 11:48:49;;;;;;;0.47;0.47;;;17.90;98.40;;;;;;4358905;32;20208;-69
2022/04/25 11:51:35;;;;;;;0.50;0.50;;;17.60;98.20;;;;;;4367553;32;20073;-68
2022/04/25 11:54:04;;;;;;;9.43;0.68;;;18.10;97.80;;;;;;4379812;32;20310;-69
2022/04/25 11:56:32;;;;;;;0.30;0.30;;;18.20;97.60;;;;;;4388614;32;20208;-68
2022/04/25 11:59:00;;;;;;;0.40;0.40;;;18.40;96.70;;;;;;4386319;32;20100;-68
2022/04/25 12:01:36;;;;;;;0.62;0.60;;;18.40;96.90;;;;;;4383724;32;20322;-67
2022/04/25 12:04:29;;;;;;;0.60;0.60;;;18.10;97.90;;;;;;4370966;32;20520;-68
2022/04/25 12:06:58;;;;;;;0.98;0.55;;;18.20;97.40;;;;;;4395214;32;20729;-69
2022/04/25 12:16:05;;;;;;;1.70;1.12;;;18.30;96.20;;;;;;4391889;32;20089;-67
2022/04/25 12:17:52;;;;;;;0.60;0.60;;;18.40;96.30;;;;;;4380602;32;20085;-67
2022/04/25 12:20:28;;;;;;;0.32;0.32;;;18.00;96.80;;;;;;4370733;32;20143;-67
2022/04/25 12:22:58;;;;;;;1.75;0.82;;;18.00;97.10;;;;;;4392537;32;20161;-69
2022/04/25 12:25:26;;;;;;;0.40;0.40;;;17.60;97.20;;;;;;4396524;32;20125;-68
2022/04/25 12:28:15;;;;;;;1.85;1.25;;;16.90;98.40;;;;;;4392746;32;20792;-68
2022/04/25 12:30:46;;;;;;;1.37;1.15;;;16.80;98.40;;;;;;4379619;32;20215;-68
2022/04/25 12:33:14;;;;;;;0.43;0.43;;;16.60;99.10;;;;;;4357616;32;20186;-67
2022/04/25 12:35:42;;;;;;;2.40;1.35;;;16.20;99.40;;;;;;4377328;32;20069;-68
2022/04/25 12:38:08;;;;;;;0.40;0.40;;;16.00;99.90;;;;;;4384597;32;20465;-68
2022/04/25 12:40:55;;;;;;;0.45;0.45;;;15.90;99.90;;;;;;4391715;32;20173;-68
2022/04/25 12:43:39;;;;;;;0.30;0.30;;;15.90;99.90;;;;;;4382545;32;20142;-68
2022/04/25 12:46:08;;;;;;;0.40;0.40;;;15.80;99.30;;;;;;4406838;32;20093;-69
2022/04/25 12:48:57;;;;;;;0.47;0.47;;;16.00;99.50;;;;;;4387726;32;20140;-69
2022/04/25 12:51:28;;;;;;;0.50;0.50;;;16.10;98.80;;;;;;4378323;32;20088;-68
2022/04/25 12:53:55;;;;;;;0.40;0.40;;;16.10;99.00;;;;;;4398280;32;20106;-68
2022/04/25 12:56:25;;;;;;;0.55;0.55;;;16.10;98.80;;;;;;4404315;32;21050;-68
2022/04/25 12:58:51;;;;;;;0.52;0.52;;;16.40;98.60;;;;;;4404330;32;20248;-68
2022/04/25 13:01:35;;;;;;;0.40;0.40;;;16.40;98.60;;;;;;4405983;32;20066;-68
2022/04/25 13:04:09;;;;;;;0.50;0.50;;;16.20;99.00;;;;;;4376905;32;20580;-68
2022/04/25 13:06:36;;;;;;;0.50;0.50;;;16.20;99.40;;;;;;4407207;32;20069;-68
2022/04/25 13:09:03;;;;;;;0.40;0.40;;;15.80;99.70;;;;;;4402931;32;20545;-68
2022/04/25 13:11:28;;;;;;;0.52;0.52;;;15.80;99.90;;;;;;4406559;32;20728;-68
2022/04/25 13:13:56;;;;;;;0.30;0.30;;;15.80;99.90;;;;;;4392722;32;20262;-69
2022/04/25 13:16:22;;;;;;;0.95;0.62;;;15.90;99.90;;;;;;4408978;32;20061;-69
2022/04/25 13:18:48;;;;;;;0.40;0.40;;;15.60;99.90;;;;;;4384911;32;20073;-70